sensor_id;sensor_type;location;lat;lon;timestamp;P1;durP1;ratioP1;P2;durP2;ratioP2
33094;SDS011;19459;53.044;8.910;2023-07-20T00:01:15;5.93;;;2.10;;
33094;SDS011;19459;53.044;8.910;2023-07-20T00:03:41;2.95;;;2.00;;
33094;SDS011;19459;53.044;8.910;2023-07-20T00:06:07;3.78;;;2.10;;
33094;SDS011;19459;53.044;8.910;2023-07-20T00:08:33;2.15;;;1.95;;
33094;SDS011;19459;53.044;8.910;2023-07-20T00:10:59;3.10;;;2.38;;
33094;SDS011;19459;53.044;8.910;2023-07-20T00:13:24;2.53;;;2.13;;
33094;SDS011;19459;53.044;8.910;2023-07-20T00:15:51;6.13;;;1.70;;
33094;SDS011;19459;53.044;8.910;2023-07-20T00:18:17;2.13;;;1.90;;
33094;SDS011;19459;53.044;8.910;2023-07-20T00:20:46;3.15;;;2.03;;
33094;SDS011;19459;53.044;8.910;2023-07-20T00:23:12;2.30;;;1.95;;
33094;SDS011;19459;53.044;8.910;2023-07-20T00:25:38;9.18;;;2.50;;
33094;SDS011;19459;53.044;8.910;2023-07-20T00:28:04;2.72;;;2.42;;
33094;SDS011;19459;53.044;8.910;2023-07-20T00:30:29;5.68;;;2.67;;
33094;SDS011;19459;53.044;8.910;2023-07-20T00:32:55;4.80;;;2.45;;
33094;SDS011;19459;53.044;8.910;2023-07-20T00:35:21;4.03;;;2.72;;
33094;SDS011;19459;53.044;8.910;2023-07-20T00:37:47;4.50;;;2.33;;
33094;SDS011;19459;53.044;8.910;2023-07-20T00:40:12;2.65;;;2.30;;
33094;SDS011;19459;53.044;8.910;2023-07-20T00:42:38;3.95;;;2.45;;
33094;SDS011;19459;53.044;8.910;2023-07-20T00:45:04;3.08;;;2.08;;
33094;SDS011;19459;53.044;8.910;2023-07-20T00:47:31;3.95;;;2.55;;
33094;SDS011;19459;53.044;8.910;2023-07-20T00:49:57;3.03;;;2.28;;
33094;SDS011;19459;53.044;8.910;2023-07-20T00:52:23;3.80;;;2.28;;
33094;SDS011;19459;53.044;8.910;2023-07-20T00:54:51;2.75;;;2.42;;
33094;SDS011;19459;53.044;8.910;2023-07-20T00:57:18;6.20;;;3.92;;
33094;SDS011;19459;53.044;8.910;2023-07-20T00:59:44;3.40;;;2.78;;
33094;SDS011;19459;53.044;8.910;2023-07-20T01:02:10;3.72;;;3.05;;
33094;SDS011;19459;53.044;8.910;2023-07-20T01:04:36;4.00;;;3.00;;
33094;SDS011;19459;53.044;8.910;2023-07-20T01:09:52;5.05;;;3.20;;
33094;SDS011;19459;53.044;8.910;2023-07-20T01:14:59;17.20;;;8.27;;
33094;SDS011;19459;53.044;8.910;2023-07-20T01:17:26;18.05;;;11.25;;
33094;SDS011;19459;53.044;8.910;2023-07-20T01:19:52;17.70;;;12.35;;
33094;SDS011;19459;53.044;8.910;2023-07-20T01:31:23;11.82;;;7.05;;
33094;SDS011;19459;53.044;8.910;2023-07-20T01:33:52;7.82;;;5.28;;
33094;SDS011;19459;53.044;8.910;2023-07-20T01:36:22;5.93;;;4.72;;
33094;SDS011;19459;53.044;8.910;2023-07-20T01:38:50;6.90;;;4.32;;
33094;SDS011;19459;53.044;8.910;2023-07-20T01:41:17;4.15;;;3.20;;
33094;SDS011;19459;53.044;8.910;2023-07-20T01:43:43;3.20;;;2.58;;
33094;SDS011;19459;53.044;8.910;2023-07-20T01:46:09;4.18;;;3.15;;
33094;SDS011;19459;53.044;8.910;2023-07-20T01:48:35;4.43;;;3.00;;
33094;SDS011;19459;53.044;8.910;2023-07-20T01:51:01;4.28;;;2.80;;
33094;SDS011;19459;53.044;8.910;2023-07-20T01:53:27;3.97;;;2.65;;
33094;SDS011;19459;53.044;8.910;2023-07-20T01:55:53;4.00;;;2.60;;
33094;SDS011;19459;53.044;8.910;2023-07-20T01:58:19;4.43;;;2.65;;
33094;SDS011;19459;53.044;8.910;2023-07-20T02:00:45;3.65;;;2.17;;
33094;SDS011;19459;53.044;8.910;2023-07-20T02:03:11;2.88;;;2.10;;
33094;SDS011;19459;53.044;8.910;2023-07-20T02:05:37;2.58;;;2.17;;
33094;SDS011;19459;53.044;8.910;2023-07-20T02:08:04;2.40;;;1.80;;
33094;SDS011;19459;53.044;8.910;2023-07-20T02:10:30;3.47;;;2.13;;
33094;SDS011;19459;53.044;8.910;2023-07-20T02:12:56;3.05;;;1.90;;
33094;SDS011;19459;53.044;8.910;2023-07-20T02:15:21;4.10;;;2.10;;
33094;SDS011;19459;53.044;8.910;2023-07-20T02:17:47;4.25;;;2.88;;
33094;SDS011;19459;53.044;8.910;2023-07-20T02:20:13;2.92;;;2.53;;
33094;SDS011;19459;53.044;8.910;2023-07-20T02:22:39;5.38;;;2.80;;
33094;SDS011;19459;53.044;8.910;2023-07-20T02:25:05;5.55;;;4.63;;
33094;SDS011;19459;53.044;8.910;2023-07-20T02:27:33;10.65;;;5.32;;
33094;SDS011;19459;53.044;8.910;2023-07-20T02:30:02;5.97;;;5.25;;
33094;SDS011;19459;53.044;8.910;2023-07-20T02:32:29;6.75;;;5.03;;
33094;SDS011;19459;53.044;8.910;2023-07-20T02:34:56;7.20;;;4.93;;
33094;SDS011;19459;53.044;8.910;2023-07-20T02:37:23;3.88;;;3.08;;
33094;SDS011;19459;53.044;8.910;2023-07-20T02:39:49;3.90;;;1.63;;
33094;SDS011;19459;53.044;8.910;2023-07-20T02:42:15;2.30;;;1.80;;
33094;SDS011;19459;53.044;8.910;2023-07-20T02:44:41;2.30;;;1.40;;
33094;SDS011;19459;53.044;8.910;2023-07-20T02:47:06;2.83;;;1.83;;
33094;SDS011;19459;53.044;8.910;2023-07-20T02:49:32;2.42;;;1.33;;
33094;SDS011;19459;53.044;8.910;2023-07-20T02:51:58;4.53;;;1.50;;
33094;SDS011;19459;53.044;8.910;2023-07-20T02:54:24;2.80;;;1.92;;
33094;SDS011;19459;53.044;8.910;2023-07-20T02:56:50;3.65;;;1.75;;
33094;SDS011;19459;53.044;8.910;2023-07-20T02:59:15;3.28;;;2.38;;
33094;SDS011;19459;53.044;8.910;2023-07-20T03:01:41;2.47;;;1.80;;
33094;SDS011;19459;53.044;8.910;2023-07-20T03:04:08;3.20;;;2.10;;
33094;SDS011;19459;53.044;8.910;2023-07-20T03:06:35;4.22;;;2.28;;
33094;SDS011;19459;53.044;8.910;2023-07-20T03:09:02;2.25;;;2.05;;
33094;SDS011;19459;53.044;8.910;2023-07-20T03:11:32;3.10;;;2.08;;
33094;SDS011;19459;53.044;8.910;2023-07-20T03:13:59;2.45;;;1.65;;
33094;SDS011;19459;53.044;8.910;2023-07-20T03:16:24;2.22;;;1.40;;
33094;SDS011;19459;53.044;8.910;2023-07-20T03:18:51;3.17;;;1.40;;
33094;SDS011;19459;53.044;8.910;2023-07-20T03:21:17;1.42;;;1.08;;
33094;SDS011;19459;53.044;8.910;2023-07-20T03:23:43;1.13;;;1.00;;
33094;SDS011;19459;53.044;8.910;2023-07-20T03:26:09;4.45;;;2.17;;
33094;SDS011;19459;53.044;8.910;2023-07-20T03:28:35;2.58;;;1.75;;
33094;SDS011;19459;53.044;8.910;2023-07-20T03:31:03;5.25;;;2.10;;
33094;SDS011;19459;53.044;8.910;2023-07-20T03:33:30;3.28;;;2.70;;
33094;SDS011;19459;53.044;8.910;2023-07-20T03:35:56;2.60;;;1.90;;
33094;SDS011;19459;53.044;8.910;2023-07-20T03:38:23;4.68;;;2.78;;
33094;SDS011;19459;53.044;8.910;2023-07-20T03:40:59;2.58;;;2.30;;
33094;SDS011;19459;53.044;8.910;2023-07-20T03:43:26;4.15;;;2.28;;
33094;SDS011;19459;53.044;8.910;2023-07-20T03:45:54;3.00;;;2.45;;
33094;SDS011;19459;53.044;8.910;2023-07-20T03:48:20;3.55;;;2.15;;
33094;SDS011;19459;53.044;8.910;2023-07-20T03:50:49;5.07;;;3.08;;
33094;SDS011;19459;53.044;8.910;2023-07-20T03:53:16;5.15;;;3.85;;
33094;SDS011;19459;53.044;8.910;2023-07-20T03:55:49;6.70;;;4.05;;
33094;SDS011;19459;53.044;8.910;2023-07-20T03:58:16;4.35;;;3.85;;
33094;SDS011;19459;53.044;8.910;2023-07-20T04:00:48;5.72;;;3.33;;
33094;SDS011;19459;53.044;8.910;2023-07-20T04:03:16;6.97;;;3.40;;
33094;SDS011;19459;53.044;8.910;2023-07-20T04:05:45;6.78;;;3.78;;
33094;SDS011;19459;53.044;8.910;2023-07-20T04:08:11;7.72;;;4.20;;
33094;SDS011;19459;53.044;8.910;2023-07-20T04:10:37;5.03;;;4.50;;
33094;SDS011;19459;53.044;8.910;2023-07-20T04:13:04;6.40;;;3.75;;
33094;SDS011;19459;53.044;8.910;2023-07-20T04:15:30;4.68;;;3.95;;
33094;SDS011;19459;53.044;8.910;2023-07-20T04:17:56;5.47;;;4.65;;
33094;SDS011;19459;53.044;8.910;2023-07-20T04:20:23;6.30;;;4.85;;
33094;SDS011;19459;53.044;8.910;2023-07-20T04:22:49;5.90;;;4.70;;
33094;SDS011;19459;53.044;8.910;2023-07-20T04:25:15;4.88;;;3.67;;
33094;SDS011;19459;53.044;8.910;2023-07-20T04:27:42;8.65;;;5.03;;
33094;SDS011;19459;53.044;8.910;2023-07-20T04:30:08;5.40;;;4.60;;
33094;SDS011;19459;53.044;8.910;2023-07-20T04:32:36;5.53;;;3.40;;
33094;SDS011;19459;53.044;8.910;2023-07-20T04:35:06;6.07;;;4.63;;
33094;SDS011;19459;53.044;8.910;2023-07-20T04:37:33;5.82;;;4.10;;
33094;SDS011;19459;53.044;8.910;2023-07-20T04:39:58;7.00;;;4.30;;
33094;SDS011;19459;53.044;8.910;2023-07-20T04:42:24;5.43;;;4.45;;
33094;SDS011;19459;53.044;8.910;2023-07-20T04:44:50;9.45;;;3.92;;
33094;SDS011;19459;53.044;8.910;2023-07-20T04:47:16;5.57;;;4.00;;
33094;SDS011;19459;53.044;8.910;2023-07-20T04:49:41;6.43;;;4.30;;
33094;SDS011;19459;53.044;8.910;2023-07-20T04:52:07;5.75;;;5.10;;
33094;SDS011;19459;53.044;8.910;2023-07-20T04:54:33;6.75;;;4.82;;
33094;SDS011;19459;53.044;8.910;2023-07-20T04:56:59;5.40;;;4.90;;
33094;SDS011;19459;53.044;8.910;2023-07-20T04:59:25;5.60;;;4.85;;
33094;SDS011;19459;53.044;8.910;2023-07-20T05:01:51;6.10;;;4.35;;
33094;SDS011;19459;53.044;8.910;2023-07-20T05:04:16;10.82;;;5.10;;
33094;SDS011;19459;53.044;8.910;2023-07-20T05:06:42;7.43;;;5.53;;
33094;SDS011;19459;53.044;8.910;2023-07-20T05:09:08;5.40;;;4.55;;
33094;SDS011;19459;53.044;8.910;2023-07-20T05:11:34;9.52;;;5.82;;
33094;SDS011;19459;53.044;8.910;2023-07-20T05:14:00;7.82;;;5.72;;
33094;SDS011;19459;53.044;8.910;2023-07-20T05:16:26;9.68;;;4.35;;
33094;SDS011;19459;53.044;8.910;2023-07-20T05:18:52;5.65;;;5.05;;
33094;SDS011;19459;53.044;8.910;2023-07-20T05:21:17;10.05;;;5.82;;
33094;SDS011;19459;53.044;8.910;2023-07-20T05:23:43;7.45;;;5.07;;
33094;SDS011;19459;53.044;8.910;2023-07-20T05:26:09;9.10;;;6.45;;
33094;SDS011;19459;53.044;8.910;2023-07-20T05:28:36;7.45;;;4.57;;
33094;SDS011;19459;53.044;8.910;2023-07-20T05:31:04;8.30;;;4.82;;
33094;SDS011;19459;53.044;8.910;2023-07-20T05:33:31;6.38;;;4.85;;
33094;SDS011;19459;53.044;8.910;2023-07-20T05:35:57;17.00;;;5.18;;
33094;SDS011;19459;53.044;8.910;2023-07-20T05:38:22;5.75;;;4.25;;
33094;SDS011;19459;53.044;8.910;2023-07-20T05:40:48;11.93;;;5.50;;
33094;SDS011;19459;53.044;8.910;2023-07-20T05:43:14;7.72;;;4.57;;
33094;SDS011;19459;53.044;8.910;2023-07-20T05:45:43;6.85;;;4.43;;
33094;SDS011;19459;53.044;8.910;2023-07-20T05:48:10;6.90;;;4.22;;
33094;SDS011;19459;53.044;8.910;2023-07-20T05:50:37;5.53;;;4.20;;
33094;SDS011;19459;53.044;8.910;2023-07-20T05:53:06;10.73;;;4.97;;
33094;SDS011;19459;53.044;8.910;2023-07-20T05:55:32;4.43;;;3.83;;
33094;SDS011;19459;53.044;8.910;2023-07-20T05:57:58;6.88;;;4.15;;
33094;SDS011;19459;53.044;8.910;2023-07-20T06:00:23;9.38;;;3.75;;
33094;SDS011;19459;53.044;8.910;2023-07-20T06:02:52;7.82;;;3.20;;
33094;SDS011;19459;53.044;8.910;2023-07-20T06:05:19;10.05;;;3.30;;
33094;SDS011;19459;53.044;8.910;2023-07-20T06:07:46;8.18;;;3.92;;
33094;SDS011;19459;53.044;8.910;2023-07-20T06:10:11;6.47;;;3.15;;
33094;SDS011;19459;53.044;8.910;2023-07-20T06:12:37;5.03;;;2.90;;
33094;SDS011;19459;53.044;8.910;2023-07-20T06:15:03;7.32;;;3.65;;
33094;SDS011;19459;53.044;8.910;2023-07-20T06:17:30;6.93;;;2.70;;
33094;SDS011;19459;53.044;8.910;2023-07-20T06:19:56;7.18;;;2.88;;
33094;SDS011;19459;53.044;8.910;2023-07-20T06:22:22;5.95;;;2.42;;
33094;SDS011;19459;53.044;8.910;2023-07-20T06:24:48;8.63;;;2.28;;
33094;SDS011;19459;53.044;8.910;2023-07-20T06:27:14;7.30;;;2.35;;
33094;SDS011;19459;53.044;8.910;2023-07-20T06:29:39;5.95;;;2.88;;
33094;SDS011;19459;53.044;8.910;2023-07-20T06:32:05;7.63;;;2.75;;
33094;SDS011;19459;53.044;8.910;2023-07-20T06:34:32;6.50;;;2.75;;
33094;SDS011;19459;53.044;8.910;2023-07-20T06:37:02;6.63;;;2.53;;
33094;SDS011;19459;53.044;8.910;2023-07-20T06:39:29;5.25;;;2.25;;
33094;SDS011;19459;53.044;8.910;2023-07-20T06:41:55;7.72;;;2.35;;
33094;SDS011;19459;53.044;8.910;2023-07-20T06:44:21;4.68;;;2.35;;
33094;SDS011;19459;53.044;8.910;2023-07-20T06:46:47;6.43;;;2.13;;
33094;SDS011;19459;53.044;8.910;2023-07-20T06:49:23;3.58;;;2.13;;
33094;SDS011;19459;53.044;8.910;2023-07-20T06:51:53;6.18;;;1.77;;
33094;SDS011;19459;53.044;8.910;2023-07-20T06:54:19;5.07;;;1.73;;
33094;SDS011;19459;53.044;8.910;2023-07-20T06:56:45;5.50;;;2.10;;
33094;SDS011;19459;53.044;8.910;2023-07-20T06:59:11;7.88;;;1.70;;
33094;SDS011;19459;53.044;8.910;2023-07-20T07:01:36;5.38;;;1.52;;
33094;SDS011;19459;53.044;8.910;2023-07-20T07:04:02;5.93;;;2.25;;
33094;SDS011;19459;53.044;8.910;2023-07-20T07:06:30;13.15;;;3.10;;
33094;SDS011;19459;53.044;8.910;2023-07-20T07:08:56;5.72;;;2.42;;
33094;SDS011;19459;53.044;8.910;2023-07-20T07:11:22;5.38;;;1.83;;
33094;SDS011;19459;53.044;8.910;2023-07-20T07:13:48;7.07;;;2.00;;
33094;SDS011;19459;53.044;8.910;2023-07-20T07:16:16;5.32;;;1.75;;
33094;SDS011;19459;53.044;8.910;2023-07-20T07:18:47;5.55;;;1.75;;
33094;SDS011;19459;53.044;8.910;2023-07-20T07:21:15;5.15;;;1.92;;
33094;SDS011;19459;53.044;8.910;2023-07-20T07:23:40;3.40;;;1.40;;
33094;SDS011;19459;53.044;8.910;2023-07-20T07:26:06;5.38;;;1.63;;
33094;SDS011;19459;53.044;8.910;2023-07-20T07:28:32;5.60;;;1.85;;
33094;SDS011;19459;53.044;8.910;2023-07-20T07:30:58;6.50;;;2.28;;
33094;SDS011;19459;53.044;8.910;2023-07-20T07:33:24;4.07;;;1.73;;
33094;SDS011;19459;53.044;8.910;2023-07-20T07:35:50;3.42;;;1.58;;
33094;SDS011;19459;53.044;8.910;2023-07-20T07:38:17;9.95;;;1.85;;
33094;SDS011;19459;53.044;8.910;2023-07-20T07:40:44;1.95;;;1.10;;
33094;SDS011;19459;53.044;8.910;2023-07-20T07:43:10;4.53;;;1.50;;
33094;SDS011;19459;53.044;8.910;2023-07-20T07:45:36;4.45;;;1.63;;
33094;SDS011;19459;53.044;8.910;2023-07-20T07:48:03;3.90;;;1.55;;
33094;SDS011;19459;53.044;8.910;2023-07-20T07:50:32;6.00;;;1.77;;
33094;SDS011;19459;53.044;8.910;2023-07-20T07:52:59;7.07;;;1.48;;
33094;SDS011;19459;53.044;8.910;2023-07-20T07:55:25;7.78;;;2.17;;
33094;SDS011;19459;53.044;8.910;2023-07-20T07:57:54;8.35;;;2.05;;
33094;SDS011;19459;53.044;8.910;2023-07-20T08:00:19;5.43;;;2.20;;
33094;SDS011;19459;53.044;8.910;2023-07-20T08:02:45;8.68;;;2.13;;
33094;SDS011;19459;53.044;8.910;2023-07-20T08:05:15;6.15;;;1.90;;
33094;SDS011;19459;53.044;8.910;2023-07-20T08:07:41;6.88;;;1.42;;
33094;SDS011;19459;53.044;8.910;2023-07-20T08:10:07;5.97;;;1.50;;
33094;SDS011;19459;53.044;8.910;2023-07-20T08:12:33;2.50;;;1.50;;
33094;SDS011;19459;53.044;8.910;2023-07-20T08:14:59;4.07;;;1.42;;
33094;SDS011;19459;53.044;8.910;2023-07-20T08:17:25;3.97;;;1.40;;
33094;SDS011;19459;53.044;8.910;2023-07-20T08:19:51;4.25;;;1.30;;
33094;SDS011;19459;53.044;8.910;2023-07-20T08:22:16;4.93;;;1.08;;
33094;SDS011;19459;53.044;8.910;2023-07-20T08:24:42;3.92;;;1.70;;
33094;SDS011;19459;53.044;8.910;2023-07-20T08:27:09;5.70;;;1.77;;
33094;SDS011;19459;53.044;8.910;2023-07-20T08:29:35;5.80;;;1.08;;
33094;SDS011;19459;53.044;8.910;2023-07-20T08:32:02;3.80;;;1.15;;
33094;SDS011;19459;53.044;8.910;2023-07-20T08:34:29;2.55;;;1.30;;
33094;SDS011;19459;53.044;8.910;2023-07-20T08:36:56;6.35;;;1.25;;
33094;SDS011;19459;53.044;8.910;2023-07-20T08:39:23;6.35;;;1.48;;
33094;SDS011;19459;53.044;8.910;2023-07-20T08:41:49;4.78;;;1.55;;
33094;SDS011;19459;53.044;8.910;2023-07-20T08:44:16;4.82;;;1.80;;
33094;SDS011;19459;53.044;8.910;2023-07-20T08:46:42;4.80;;;1.75;;
33094;SDS011;19459;53.044;8.910;2023-07-20T08:49:09;5.70;;;2.25;;
33094;SDS011;19459;53.044;8.910;2023-07-20T08:51:36;4.18;;;1.90;;
33094;SDS011;19459;53.044;8.910;2023-07-20T08:54:04;3.72;;;1.67;;
33094;SDS011;19459;53.044;8.910;2023-07-20T08:56:31;5.00;;;1.60;;
33094;SDS011;19459;53.044;8.910;2023-07-20T08:58:59;1.67;;;1.25;;
33094;SDS011;19459;53.044;8.910;2023-07-20T09:01:26;2.53;;;1.50;;
33094;SDS011;19459;53.044;8.910;2023-07-20T09:03:54;4.40;;;1.27;;
33094;SDS011;19459;53.044;8.910;2023-07-20T09:06:20;6.95;;;1.98;;
33094;SDS011;19459;53.044;8.910;2023-07-20T09:08:46;3.20;;;1.50;;
33094;SDS011;19459;53.044;8.910;2023-07-20T09:11:12;6.78;;;1.98;;
33094;SDS011;19459;53.044;8.910;2023-07-20T09:13:41;4.93;;;1.52;;
33094;SDS011;19459;53.044;8.910;2023-07-20T09:16:07;6.38;;;1.60;;
33094;SDS011;19459;53.044;8.910;2023-07-20T09:18:32;3.00;;;1.50;;
33094;SDS011;19459;53.044;8.910;2023-07-20T09:21:02;4.07;;;1.27;;
33094;SDS011;19459;53.044;8.910;2023-07-20T09:23:34;7.65;;;1.73;;
33094;SDS011;19459;53.044;8.910;2023-07-20T09:26:11;5.97;;;1.60;;
33094;SDS011;19459;53.044;8.910;2023-07-20T09:28:42;4.82;;;1.67;;
33094;SDS011;19459;53.044;8.910;2023-07-20T09:31:20;6.00;;;1.60;;
33094;SDS011;19459;53.044;8.910;2023-07-20T09:33:48;3.95;;;1.52;;
33094;SDS011;19459;53.044;8.910;2023-07-20T09:36:16;3.97;;;1.48;;
33094;SDS011;19459;53.044;8.910;2023-07-20T09:38:41;5.70;;;1.83;;
33094;SDS011;19459;53.044;8.910;2023-07-20T09:41:08;3.45;;;1.38;;
33094;SDS011;19459;53.044;8.910;2023-07-20T09:43:39;3.78;;;1.48;;
33094;SDS011;19459;53.044;8.910;2023-07-20T09:46:06;5.88;;;1.10;;
33094;SDS011;19459;53.044;8.910;2023-07-20T09:48:32;3.88;;;1.50;;
33094;SDS011;19459;53.044;8.910;2023-07-20T09:50:58;2.97;;;1.63;;
33094;SDS011;19459;53.044;8.910;2023-07-20T09:53:24;2.15;;;1.45;;
33094;SDS011;19459;53.044;8.910;2023-07-20T09:55:52;2.40;;;1.63;;
33094;SDS011;19459;53.044;8.910;2023-07-20T09:58:19;3.80;;;1.48;;
33094;SDS011;19459;53.044;8.910;2023-07-20T10:00:45;3.58;;;1.30;;
33094;SDS011;19459;53.044;8.910;2023-07-20T10:03:19;5.15;;;1.15;;
33094;SDS011;19459;53.044;8.910;2023-07-20T10:05:51;4.15;;;1.75;;
33094;SDS011;19459;53.044;8.910;2023-07-20T10:08:23;3.17;;;1.75;;
33094;SDS011;19459;53.044;8.910;2023-07-20T10:10:51;6.25;;;1.77;;
33094;SDS011;19459;53.044;8.910;2023-07-20T10:13:17;3.90;;;1.48;;
33094;SDS011;19459;53.044;8.910;2023-07-20T10:15:47;2.88;;;1.63;;
33094;SDS011;19459;53.044;8.910;2023-07-20T10:18:28;2.75;;;0.80;;
33094;SDS011;19459;53.044;8.910;2023-07-20T10:21:00;4.85;;;1.48;;
33094;SDS011;19459;53.044;8.910;2023-07-20T10:23:31;5.57;;;1.00;;
33094;SDS011;19459;53.044;8.910;2023-07-20T10:25:58;3.33;;;1.33;;
33094;SDS011;19459;53.044;8.910;2023-07-20T10:28:26;9.63;;;2.47;;
33094;SDS011;19459;53.044;8.910;2023-07-20T10:30:52;7.07;;;2.25;;
33094;SDS011;19459;53.044;8.910;2023-07-20T10:33:18;6.22;;;2.10;;
33094;SDS011;19459;53.044;8.910;2023-07-20T10:35:56;6.93;;;2.55;;
33094;SDS011;19459;53.044;8.910;2023-07-20T10:38:39;6.00;;;2.13;;
33094;SDS011;19459;53.044;8.910;2023-07-20T10:41:57;3.92;;;1.50;;
33094;SDS011;19459;53.044;8.910;2023-07-20T10:44:08;4.63;;;1.65;;
33094;SDS011;19459;53.044;8.910;2023-07-20T10:49:04;5.35;;;1.83;;
33094;SDS011;19459;53.044;8.910;2023-07-20T10:51:42;4.15;;;1.92;;
33094;SDS011;19459;53.044;8.910;2023-07-20T10:56:41;4.90;;;1.77;;
33094;SDS011;19459;53.044;8.910;2023-07-20T10:59:20;3.22;;;1.55;;
33094;SDS011;19459;53.044;8.910;2023-07-20T11:02:07;4.07;;;1.38;;
33094;SDS011;19459;53.044;8.910;2023-07-20T11:04:40;2.95;;;1.30;;
33094;SDS011;19459;53.044;8.910;2023-07-20T11:07:08;6.15;;;1.90;;
33094;SDS011;19459;53.044;8.910;2023-07-20T11:09:34;3.35;;;1.60;;
33094;SDS011;19459;53.044;8.910;2023-07-20T11:12:10;3.15;;;1.50;;
33094;SDS011;19459;53.044;8.910;2023-07-20T11:14:44;4.55;;;1.60;;
33094;SDS011;19459;53.044;8.910;2023-07-20T11:17:21;3.05;;;1.40;;
33094;SDS011;19459;53.044;8.910;2023-07-20T11:19:56;6.70;;;2.08;;
33094;SDS011;19459;53.044;8.910;2023-07-20T11:22:26;2.95;;;1.73;;
33094;SDS011;19459;53.044;8.910;2023-07-20T11:24:55;3.78;;;1.52;;
33094;SDS011;19459;53.044;8.910;2023-07-20T11:27:22;3.78;;;1.85;;
33094;SDS011;19459;53.044;8.910;2023-07-20T11:29:48;3.65;;;1.58;;
33094;SDS011;19459;53.044;8.910;2023-07-20T11:32:22;7.65;;;1.55;;
33094;SDS011;19459;53.044;8.910;2023-07-20T11:34:49;3.92;;;1.48;;
33094;SDS011;19459;53.044;8.910;2023-07-20T11:37:17;4.13;;;1.48;;
33094;SDS011;19459;53.044;8.910;2023-07-20T11:39:46;9.40;;;1.60;;
33094;SDS011;19459;53.044;8.910;2023-07-20T11:42:12;2.97;;;1.40;;
33094;SDS011;19459;53.044;8.910;2023-07-20T11:44:38;4.05;;;1.58;;
33094;SDS011;19459;53.044;8.910;2023-07-20T11:47:08;2.85;;;1.35;;
33094;SDS011;19459;53.044;8.910;2023-07-20T11:49:36;4.45;;;2.10;;
33094;SDS011;19459;53.044;8.910;2023-07-20T11:52:10;3.33;;;1.40;;
33094;SDS011;19459;53.044;8.910;2023-07-20T11:54:40;3.95;;;1.67;;
33094;SDS011;19459;53.044;8.910;2023-07-20T11:57:15;5.20;;;1.75;;
33094;SDS011;19459;53.044;8.910;2023-07-20T11:59:54;4.90;;;1.83;;
33094;SDS011;19459;53.044;8.910;2023-07-20T12:02:33;5.03;;;1.73;;
33094;SDS011;19459;53.044;8.910;2023-07-20T12:04:59;5.93;;;2.10;;
33094;SDS011;19459;53.044;8.910;2023-07-20T12:07:28;8.20;;;1.85;;
33094;SDS011;19459;53.044;8.910;2023-07-20T12:10:04;4.07;;;1.58;;
33094;SDS011;19459;53.044;8.910;2023-07-20T12:12:42;3.85;;;1.80;;
33094;SDS011;19459;53.044;8.910;2023-07-20T12:15:13;4.75;;;1.50;;
33094;SDS011;19459;53.044;8.910;2023-07-20T12:17:46;15.93;;;1.95;;
33094;SDS011;19459;53.044;8.910;2023-07-20T12:20:29;4.60;;;2.17;;
33094;SDS011;19459;53.044;8.910;2023-07-20T12:23:01;3.63;;;1.63;;
33094;SDS011;19459;53.044;8.910;2023-07-20T12:25:38;4.75;;;1.60;;
33094;SDS011;19459;53.044;8.910;2023-07-20T12:28:13;10.13;;;1.52;;
33094;SDS011;19459;53.044;8.910;2023-07-20T12:30:41;5.68;;;1.95;;
33094;SDS011;19459;53.044;8.910;2023-07-20T12:33:09;3.05;;;1.40;;
33094;SDS011;19459;53.044;8.910;2023-07-20T12:35:35;2.40;;;1.17;;
33094;SDS011;19459;53.044;8.910;2023-07-20T12:38:01;5.30;;;1.13;;
33094;SDS011;19459;53.044;8.910;2023-07-20T12:40:26;3.63;;;1.20;;
33094;SDS011;19459;53.044;8.910;2023-07-20T12:42:52;4.50;;;1.20;;
33094;SDS011;19459;53.044;8.910;2023-07-20T12:45:18;5.35;;;1.35;;
33094;SDS011;19459;53.044;8.910;2023-07-20T12:47:44;1.75;;;1.17;;
33094;SDS011;19459;53.044;8.910;2023-07-20T12:50:10;5.10;;;1.85;;
33094;SDS011;19459;53.044;8.910;2023-07-20T12:52:37;3.38;;;1.30;;
33094;SDS011;19459;53.044;8.910;2023-07-20T12:55:04;2.25;;;1.10;;
33094;SDS011;19459;53.044;8.910;2023-07-20T12:57:35;2.28;;;1.00;;
33094;SDS011;19459;53.044;8.910;2023-07-20T13:00:03;1.80;;;0.77;;
33094;SDS011;19459;53.044;8.910;2023-07-20T13:02:34;3.22;;;1.30;;
33094;SDS011;19459;53.044;8.910;2023-07-20T13:05:01;5.43;;;1.10;;
33094;SDS011;19459;53.044;8.910;2023-07-20T13:07:31;3.63;;;1.10;;
33094;SDS011;19459;53.044;8.910;2023-07-20T13:09:59;6.70;;;1.38;;
33094;SDS011;19459;53.044;8.910;2023-07-20T13:12:26;3.53;;;1.30;;
33094;SDS011;19459;53.044;8.910;2023-07-20T13:14:54;4.13;;;1.60;;
33094;SDS011;19459;53.044;8.910;2023-07-20T13:17:21;3.42;;;1.10;;
33094;SDS011;19459;53.044;8.910;2023-07-20T13:19:47;5.90;;;1.60;;
33094;SDS011;19459;53.044;8.910;2023-07-20T13:22:13;2.50;;;1.00;;
33094;SDS011;19459;53.044;8.910;2023-07-20T13:24:45;3.80;;;1.35;;
33094;SDS011;19459;53.044;8.910;2023-07-20T13:27:14;2.63;;;1.30;;
33094;SDS011;19459;53.044;8.910;2023-07-20T13:29:41;3.70;;;1.20;;
33094;SDS011;19459;53.044;8.910;2023-07-20T13:32:07;3.95;;;1.45;;
33094;SDS011;19459;53.044;8.910;2023-07-20T13:34:34;9.63;;;1.52;;
33094;SDS011;19459;53.044;8.910;2023-07-20T13:37:00;3.50;;;1.35;;
33094;SDS011;19459;53.044;8.910;2023-07-20T13:39:27;3.85;;;2.00;;
33094;SDS011;19459;53.044;8.910;2023-07-20T13:41:53;8.68;;;2.92;;
33094;SDS011;19459;53.044;8.910;2023-07-20T13:44:19;5.32;;;2.40;;
33094;SDS011;19459;53.044;8.910;2023-07-20T13:46:46;5.30;;;1.77;;
33094;SDS011;19459;53.044;8.910;2023-07-20T13:49:13;11.30;;;1.60;;
33094;SDS011;19459;53.044;8.910;2023-07-20T13:51:39;8.80;;;1.80;;
33094;SDS011;19459;53.044;8.910;2023-07-20T13:54:08;6.60;;;2.05;;
33094;SDS011;19459;53.044;8.910;2023-07-20T13:56:36;3.30;;;1.50;;
33094;SDS011;19459;53.044;8.910;2023-07-20T13:59:02;5.13;;;1.77;;
33094;SDS011;19459;53.044;8.910;2023-07-20T14:01:28;3.90;;;1.65;;
33094;SDS011;19459;53.044;8.910;2023-07-20T14:03:55;7.22;;;1.90;;
33094;SDS011;19459;53.044;8.910;2023-07-20T14:06:21;6.90;;;1.25;;
33094;SDS011;19459;53.044;8.910;2023-07-20T14:08:47;4.55;;;1.02;;
33094;SDS011;19459;53.044;8.910;2023-07-20T14:11:14;2.75;;;1.08;;
33094;SDS011;19459;53.044;8.910;2023-07-20T14:13:41;4.38;;;1.20;;
33094;SDS011;19459;53.044;8.910;2023-07-20T14:16:07;2.05;;;1.25;;
33094;SDS011;19459;53.044;8.910;2023-07-20T14:18:33;5.22;;;0.95;;
33094;SDS011;19459;53.044;8.910;2023-07-20T14:20:59;4.53;;;1.67;;
33094;SDS011;19459;53.044;8.910;2023-07-20T14:23:27;2.95;;;1.33;;
33094;SDS011;19459;53.044;8.910;2023-07-20T14:25:53;3.17;;;1.30;;
33094;SDS011;19459;53.044;8.910;2023-07-20T14:28:18;3.33;;;1.20;;
33094;SDS011;19459;53.044;8.910;2023-07-20T14:30:45;1.70;;;1.05;;
33094;SDS011;19459;53.044;8.910;2023-07-20T14:33:11;4.75;;;1.65;;
33094;SDS011;19459;53.044;8.910;2023-07-20T14:35:36;6.65;;;1.67;;
33094;SDS011;19459;53.044;8.910;2023-07-20T14:38:02;6.05;;;1.65;;
33094;SDS011;19459;53.044;8.910;2023-07-20T14:40:28;6.07;;;1.67;;
33094;SDS011;19459;53.044;8.910;2023-07-20T14:42:55;4.47;;;1.20;;
33094;SDS011;19459;53.044;8.910;2023-07-20T14:45:21;3.95;;;1.27;;
33094;SDS011;19459;53.044;8.910;2023-07-20T14:47:47;4.57;;;1.17;;
33094;SDS011;19459;53.044;8.910;2023-07-20T14:50:18;5.53;;;1.77;;
33094;SDS011;19459;53.044;8.910;2023-07-20T14:52:47;4.97;;;1.23;;
33094;SDS011;19459;53.044;8.910;2023-07-20T14:55:14;1.38;;;0.55;;
33094;SDS011;19459;53.044;8.910;2023-07-20T14:57:40;4.57;;;1.05;;
33094;SDS011;19459;53.044;8.910;2023-07-20T15:00:06;3.33;;;1.20;;
33094;SDS011;19459;53.044;8.910;2023-07-20T15:02:35;4.07;;;1.13;;
33094;SDS011;19459;53.044;8.910;2023-07-20T15:05:02;1.52;;;0.80;;
33094;SDS011;19459;53.044;8.910;2023-07-20T15:07:32;4.53;;;0.80;;
33094;SDS011;19459;53.044;8.910;2023-07-20T15:09:58;3.40;;;1.02;;